Time;durP1;ratioP1;P1;durP2;ratioP2;P2;SDS_P1;SDS_P2;PMS_P1;PMS_P2;Temp;Humidity;BMP_temperature;BMP_pressure;BME280_temperature;BME280_humidity;BME280_pressure;Samples;Min_cycle;Max_cycle;Signal;HPM_P1;HPM_P2
2022/07/03 00:00:28;;;;;;;13.97;11.33;;;;;;;;;;5184025;28;20771;-74
2022/07/03 00:03:01;;;;;;;15.77;11.53;;;;;;;;;;5186372;28;21203;-74
2022/07/03 00:05:35;;;;;;;17.67;11.97;;;;;;;;;;5186922;28;20049;-74
2022/07/03 00:08:07;;;;;;;15.50;11.15;;;;;;;;;;5166491;28;20531;-75
2022/07/03 00:10:40;;;;;;;20.53;12.40;;;;;;;;;;5184824;28;20045;-74
2022/07/03 00:13:13;;;;;;;18.70;12.10;;;;;;;;;;5188762;28;20048;-74
2022/07/03 00:15:46;;;;;;;22.13;12.53;;;;;;;;;;5160645;28;20519;-76
2022/07/03 00:18:18;;;;;;;17.50;11.98;;;15.50;99.90;;;;;;5185984;28;20071;-74
2022/07/03 00:21:02;;;;;;;15.80;12.35;;;15.40;99.90;;;;;;5193045;28;20059;-74
2022/07/03 00:23:44;;;;;;;16.45;12.10;;;15.30;99.90;;;;;;5166499;28;21841;-76
2022/07/03 00:26:19;;;;;;;16.00;11.43;;;15.20;99.90;;;;;;5169459;28;20407;-75
2022/07/03 00:28:54;;;;;;;19.38;11.52;;;15.20;99.90;;;;;;5185714;28;20045;-76
2022/07/03 00:31:32;;;;;;;14.88;11.25;;;15.20;99.90;;;;;;5169547;28;20056;-75
2022/07/03 00:34:08;;;;;;;14.32;10.52;;;14.20;99.90;;;;;;5188075;28;20776;-76
2022/07/03 00:36:42;;;;;;;12.88;10.65;;;;;;;;;;5160310;28;20056;-75
2022/07/03 00:39:15;;;;;;;;;;;;;;;;;;5158511;28;20619;-75
2022/07/03 00:41:59;;;;;;;17.50;11.60;;;;;;;;;;5178437;28;19929;-75
2022/07/03 00:44:34;;;;;;;14.15;10.93;;;;;;;;;;5164007;28;20056;-74
2022/07/03 00:47:07;;;;;;;15.90;10.63;;;;;;;;;;5184730;28;21757;-74
2022/07/03 00:49:41;;;;;;;16.85;10.38;;;;;;;;;;5177625;28;20037;-76
2022/07/03 00:52:14;;;;;;;15.57;10.73;;;;;;;;;;5181337;28;20048;-75
2022/07/03 00:54:54;;;;;;;14.30;10.57;;;;;;;;;;5162323;28;20057;-75
2022/07/03 00:57:29;;;;;;;18.65;11.82;;;;;;;;;;5163679;28;20052;-75
2022/07/03 01:00:01;;;;;;;14.70;10.20;;;;;;;;;;5184759;28;20503;-75
2022/07/03 01:02:40;;;;;;;16.15;10.90;;;15.50;99.90;;;;;;5180638;28;20099;-74
2022/07/03 01:05:42;;;;;;;13.63;9.55;;;15.40;99.90;;;;;;5183541;28;20592;-75
2022/07/03 01:08:23;;;;;;;9.70;7.65;;;15.40;99.90;;;;;;5166755;28;20507;-75
2022/07/03 01:11:03;;;;;;;11.07;8.02;;;15.50;99.90;;;;;;5189231;28;20060;-75
2022/07/03 01:13:47;;;;;;;9.15;6.85;;;15.50;99.90;;;;;;5189150;28;20052;-75
2022/07/03 01:16:30;;;;;;;10.23;6.50;;;15.70;99.90;;;;;;5184078;28;20053;-74
2022/07/03 01:19:26;;;;;;;7.25;5.30;;;15.80;99.90;;;;;;5191814;28;20049;-74
2022/07/03 01:22:17;;;;;;;8.02;5.70;;;15.70;99.90;;;;;;5186015;28;20060;-74
2022/07/03 01:24:53;;;;;;;8.10;6.00;;;;;;;;;;5185495;28;20044;-74
2022/07/03 01:27:33;;;;;;;7.72;5.10;;;;;;;;;;5193683;28;20066;-73
2022/07/03 01:30:07;;;;;;;10.05;5.45;;;;;;;;;;5176509;28;20068;-75
2022/07/03 01:32:44;;;;;;;7.22;4.97;;;;;;;;;;5198211;28;20060;-75
2022/07/03 01:35:21;;;;;;;7.35;5.28;;;;;;;;;;5191695;28;20417;-75
2022/07/03 01:37:55;;;;;;;6.05;4.93;;;;;;;;;;5183234;28;20061;-75
2022/07/03 01:40:28;;;;;;;;;;;;;;;;;;5170833;28;20064;-73
2022/07/03 01:43:03;;;;;;;7.93;4.97;;;;;;;;;;5182086;28;19929;-74
2022/07/03 01:45:46;;;;;;;8.18;4.47;;;16.00;99.90;;;;;;5180673;28;20051;-75
2022/07/03 01:48:21;;;;;;;5.40;3.90;;;16.00;99.90;;;;;;5184586;28;20048;-75
2022/07/03 01:50:55;;;;;;;6.68;4.38;;;15.90;99.90;;;;;;5192584;28;20059;-77
2022/07/03 01:53:30;;;;;;;5.35;4.45;;;15.90;99.90;;;;;;5188139;28;20166;-75
2022/07/03 01:56:04;;;;;;;4.85;4.25;;;15.80;99.90;;;;;;5171206;28;20064;-76
2022/07/03 01:58:37;;;;;;;7.85;4.45;;;15.80;99.90;;;;;;5167969;28;20032;-75
2022/07/03 02:01:28;;;;;;;7.93;5.23;;;;;;;;;;5178045;28;20049;-75
2022/07/03 02:04:27;;;;;;;4.47;3.97;;;15.80;99.90;;;;;;5184915;28;20064;-76
2022/07/03 02:07:03;;;;;;;6.57;4.75;;;;;;;;;;5194623;28;20057;-76
2022/07/03 02:09:48;;;;;;;8.45;4.20;;;15.70;99.90;;;;;;5192537;28;20063;-75
2022/07/03 02:12:26;;;;;;;5.00;3.83;;;15.70;99.90;;;;;;5166231;28;20045;-75
2022/07/03 02:15:06;;;;;;;4.47;3.92;;;15.60;99.90;;;;;;5182508;28;20051;-74
2022/07/03 02:17:45;;;;;;;6.93;4.35;;;15.60;99.90;;;;;;5190442;28;20052;-75
2022/07/03 02:20:18;;;;;;;4.97;4.28;;;15.60;99.90;;;;;;5208377;28;20722;-75
2022/07/03 02:22:59;;;;;;;4.97;3.60;;;15.50;99.90;;;;;;5215359;28;20059;-74
2022/07/03 02:25:34;;;;;;;6.55;3.92;;;;;;;;;;5200717;28;20049;-75
2022/07/03 02:28:20;;;;;;;7.10;3.70;;;;;;;;;;5190127;28;20069;-76
2022/07/03 02:30:55;;;;;;;7.45;4.20;;;;;;;;;;5211896;28;20044;-76
2022/07/03 02:33:30;;;;;;;4.85;3.90;;;;;;;;;;5211313;28;20040;-75
2022/07/03 02:36:03;;;;;;;7.93;3.47;;;15.60;99.90;;;;;;5207485;28;20468;-75
2022/07/03 02:38:35;;;;;;;3.95;3.60;;;15.50;99.90;;;;;;5205949;28;20047;-75
2022/07/03 02:41:14;;;;;;;6.80;3.90;;;15.40;99.90;;;;;;5190340;28;20504;-75
2022/07/03 02:43:52;;;;;;;6.93;3.97;;;15.30;99.90;;;;;;5214394;28;20071;-75
2022/07/03 02:49:19;;;;;;;5.13;4.22;;;15.30;99.90;;;;;;5215699;28;20056;-74
2022/07/03 02:52:02;;;;;;;4.55;4.10;;;;;;;;;;5175046;28;20048;-75
2022/07/03 02:54:40;;;;;;;10.45;3.97;;;;;;;;;;5169283;28;20052;-75
2022/07/03 02:57:19;;;;;;;4.63;3.67;;;;;;;;;;5207541;28;20064;-76
2022/07/03 02:59:57;;;;;;;6.88;3.80;;;;;;;;;;5189074;28;20048;-76
2022/07/03 03:02:54;;;;;;;6.30;4.32;;;15.40;99.90;;;;;;5206633;28;20068;-74
2022/07/03 03:05:49;;;;;;;5.60;3.80;;;15.40;99.90;;;;;;5190937;28;20049;-74
2022/07/03 03:08:43;;;;;;;5.40;4.13;;;15.30;99.90;;;;;;5167154;28;20404;-75
2022/07/03 03:11:41;;;;;;;6.20;3.85;;;15.20;99.90;;;;;;5204124;28;20059;-75
2022/07/03 03:14:20;;;;;;;4.55;3.67;;;15.20;99.90;;;;;;5202485;28;20519;-75
2022/07/03 03:16:53;;;;;;;6.75;4.30;;;13.60;99.90;;;;;;5194520;28;20064;-75
2022/07/03 03:19:26;;;;;;;7.82;3.95;;;15.20;99.90;;;;;;5219869;22;20053;-74
2022/07/03 03:22:05;;;;;;;4.75;3.83;;;;;;;;;;5216089;28;20056;-74
2022/07/03 03:24:38;;;;;;;4.97;4.10;;;;;;;;;;5201630;28;20048;-74
2022/07/03 03:27:11;;;;;;;5.47;4.18;;;;;;;;;;5193818;28;20528;-74
2022/07/03 03:29:44;;;;;;;4.73;4.07;;;;;;;;;;5208638;28;20401;-74
2022/07/03 03:32:18;;;;;;;4.53;3.65;;;15.20;99.90;;;;;;5211903;28;20485;-74
2022/07/03 03:34:50;;;;;;;5.88;4.07;;;15.20;99.90;;;;;;5185101;28;20082;-74
2022/07/03 03:37:23;;;;;;;5.45;4.18;;;15.10;99.90;;;;;;5182739;28;20140;-74
2022/07/03 03:39:56;;;;;;;4.95;4.03;;;15.00;99.90;;;;;;5200284;28;20045;-74
2022/07/03 03:42:29;;;;;;;6.47;3.95;;;15.00;99.90;;;;;;5205953;28;20063;-75
2022/07/03 03:45:01;;;;;;;4.43;3.90;;;14.90;99.90;;;;;;5182921;28;20049;-74
2022/07/03 03:47:34;;;;;;;6.68;4.00;;;15.90;99.90;;;;;;5183237;28;20060;-75
2022/07/03 03:50:07;;;;;;;7.13;4.28;;;;;;;;;;5200815;28;20056;-76
2022/07/03 03:52:40;;;;;;;4.53;4.10;;;;;;;;;;5197807;28;20052;-75
2022/07/03 03:55:13;;;;;;;6.03;4.20;;;;;;;;;;5202384;28;20053;-74
2022/07/03 03:57:46;;;;;;;4.07;3.47;;;;;;;;;;5199075;28;20044;-74
2022/07/03 04:00:19;;;;;;;4.68;4.20;;;;;;;;;;5180503;28;20071;-74
2022/07/03 04:02:52;;;;;;;13.70;4.80;;;;;;;;;;5199533;28;20041;-74
2022/07/03 04:05:24;;;;;;;7.45;3.80;;;;;;;;;;5236091;22;20629;-70
2022/07/03 04:07:57;;;;;;;3.83;3.47;;;;;;;;;;5231536;28;20044;-70
2022/07/03 04:10:30;;;;;;;3.78;3.35;;;;;;;;;;5232498;28;20040;-71
2022/07/03 04:13:03;;;;;;;4.55;3.67;;;;;;;;;;5235598;28;20052;-70
2022/07/03 04:15:36;;;;;;;4.00;3.65;;;;;;;;;;5231608;28;20047;-71
2022/07/03 04:18:09;;;;;;;4.00;3.60;;;;;;;;;;5235225;28;20408;-71
2022/07/03 04:20:42;;;;;;;7.00;4.25;;;;;;;;;;5235161;28;20052;-71
2022/07/03 04:23:15;;;;;;;8.23;3.47;;;;;;;;;;5232282;28;20054;-71
2022/07/03 04:25:48;;;;;;;4.70;3.73;;;;;;;;;;5231760;28;20071;-71
2022/07/03 04:28:21;;;;;;;4.03;3.63;;;;;;;;;;5221672;28;21436;-71
2022/07/03 04:30:54;;;;;;;4.27;3.87;;;;;;;;;;5226780;28;20078;-71
2022/07/03 04:33:27;;;;;;;4.10;3.70;;;;;;;;;;5232952;28;20575;-71
2022/07/03 04:35:59;;;;;;;4.70;4.18;;;;;;;;;;5235382;28;20071;-71
2022/07/03 04:38:32;;;;;;;7.43;3.78;;;;;;;;;;5230240;28;21509;-71
2022/07/03 04:41:05;;;;;;;4.57;3.50;;;;;;;;;;5232559;28;20044;-71
2022/07/03 04:43:38;;;;;;;6.22;4.07;;;;;;;;;;5199971;28;20055;-71
2022/07/03 04:46:11;;;;;;;7.10;4.23;;;;;;;;;;5227661;28;20059;-71
2022/07/03 04:48:43;;;;;;;3.78;3.38;;;16.60;99.90;;;;;;5216023;28;20052;-71
2022/07/03 04:51:16;;;;;;;3.75;3.40;;;16.80;99.90;;;;;;5236646;28;20043;-71
2022/07/03 04:53:49;;;;;;;5.90;3.80;;;;;;;;;;5213443;28;20055;-71
2022/07/03 04:56:21;;;;;;;3.47;3.17;;;16.90;99.90;;;;;;5237034;28;20068;-71
2022/07/03 04:58:54;;;;;;;4.18;3.80;;;17.00;99.90;;;;;;5231296;28;20044;-71
2022/07/03 05:01:26;;;;;;;4.95;3.50;;;17.10;99.90;;;;;;5220169;28;21166;-71
2022/07/03 05:03:59;;;;;;;3.90;3.50;;;17.20;99.90;;;;;;5235237;28;20063;-71
2022/07/03 05:06:31;;;;;;;5.40;3.35;;;17.40;99.90;;;;;;5231536;28;21136;-71
2022/07/03 05:09:04;;;;;;;3.55;3.25;;;17.50;99.90;;;;;;5227630;28;20432;-71
2022/07/03 05:11:36;;;;;;;5.05;3.28;;;17.70;99.90;;;;;;5232611;28;20044;-70
2022/07/03 05:14:09;;;;;;;4.95;3.90;;;17.80;99.90;;;;;;5220896;28;20047;-71
2022/07/03 05:16:41;;;;;;;4.70;3.22;;;18.00;99.90;;;;;;5226713;28;20053;-72
2022/07/03 05:19:14;;;;;;;3.17;2.85;;;18.10;99.90;;;;;;5230909;28;20048;-72
2022/07/03 05:21:46;;;;;;;5.10;2.90;;;18.30;99.90;;;;;;5216563;28;20056;-71
2022/07/03 05:24:19;;;;;;;3.75;3.45;;;18.40;99.90;;;;;;5233930;28;20517;-71
2022/07/03 05:26:51;;;;;;;3.47;3.05;;;18.50;99.90;;;;;;5237245;28;20059;-72
2022/07/03 05:29:24;;;;;;;2.92;2.67;;;18.70;99.90;;;;;;5230781;28;20044;-71
2022/07/03 05:31:56;;;;;;;3.78;2.95;;;18.80;99.90;;;;;;5233368;28;20054;-71
2022/07/03 05:34:29;;;;;;;4.10;3.17;;;19.00;99.90;;;;;;5216077;28;20052;-72
2022/07/03 05:37:02;;;;;;;3.00;2.80;;;19.20;99.90;;;;;;5215711;28;20803;-71
2022/07/03 05:39:34;;;;;;;3.58;2.88;;;19.30;99.90;;;;;;5230480;28;20377;-71
2022/07/03 05:42:07;;;;;;;3.05;2.75;;;19.40;99.90;;;;;;5229726;28;20044;-71
2022/07/03 05:44:39;;;;;;;3.30;2.50;;;19.60;99.90;;;;;;5241837;28;20051;-71
2022/07/03 05:47:12;;;;;;;2.33;2.13;;;19.70;99.90;;;;;;5222686;28;20048;-71
2022/07/03 05:49:44;;;;;;;3.00;2.70;;;19.80;99.90;;;;;;5239866;28;20064;-71
2022/07/03 05:52:18;;;;;;;2.92;2.60;;;19.90;99.90;;;;;;5233654;28;20055;-72
2022/07/03 05:54:50;;;;;;;4.10;2.40;;;20.10;99.90;;;;;;5238207;28;20051;-72
2022/07/03 05:57:23;;;;;;;4.82;3.30;;;20.10;99.90;;;;;;5228285;28;20067;-71
2022/07/03 05:59:55;;;;;;;4.50;2.77;;;20.20;99.90;;;;;;5236728;28;20053;-71
2022/07/03 06:02:28;;;;;;;3.42;2.70;;;20.30;99.90;;;;;;5224603;28;20325;-72
2022/07/03 06:05:00;;;;;;;3.33;2.53;;;20.40;99.90;;;;;;5214093;28;20466;-71
2022/07/03 06:07:33;;;;;;;4.60;2.50;;;20.50;99.90;;;;;;5214712;28;20056;-71
2022/07/03 06:10:06;;;;;;;2.85;2.47;;;20.70;99.90;;;;;;5216083;28;20119;-71
2022/07/03 06:12:39;;;;;;;3.08;2.35;;;20.70;99.90;;;;;;5229365;28;20775;-71
2022/07/03 06:15:12;;;;;;;3.08;2.38;;;20.90;99.90;;;;;;5207832;28;20056;-71
2022/07/03 06:17:44;;;;;;;2.83;2.08;;;21.00;99.90;;;;;;5232716;28;20075;-71
2022/07/03 06:20:17;;;;;;;2.97;2.38;;;21.10;99.90;;;;;;5222772;28;20052;-72
2022/07/03 06:22:49;;;;;;;4.97;2.20;;;21.20;99.90;;;;;;5212409;28;20052;-71
2022/07/03 06:25:22;;;;;;;2.15;1.95;;;21.30;99.90;;;;;;5222310;28;20059;-71
2022/07/03 06:27:54;;;;;;;3.10;2.00;;;21.50;99.90;;;;;;5230087;28;20220;-72
2022/07/03 06:30:26;;;;;;;5.65;2.58;;;21.60;98.40;;;;;;5228322;28;20066;-72
2022/07/03 06:32:59;;;;;;;2.83;2.38;;;21.70;97.70;;;;;;5224426;28;20059;-71
2022/07/03 06:35:31;;;;;;;5.75;2.35;;;21.80;97.10;;;;;;5227094;28;21161;-71
2022/07/03 06:38:04;;;;;;;4.35;2.28;;;22.00;95.30;;;;;;5206260;28;20054;-72
2022/07/03 06:40:37;;;;;;;4.03;1.92;;;22.10;93.90;;;;;;5218167;28;20052;-71
2022/07/03 06:43:09;;;;;;;2.08;1.88;;;22.20;93.00;;;;;;5196679;28;22425;-71
2022/07/03 06:45:42;;;;;;;3.35;2.05;;;22.30;92.40;;;;;;5232726;28;20067;-71
2022/07/03 06:48:15;;;;;;;3.15;2.15;;;22.50;91.10;;;;;;5203423;28;20575;-72
2022/07/03 06:50:48;;;;;;;2.58;1.85;;;22.60;90.50;;;;;;5185697;28;21016;-72
2022/07/03 06:53:20;;;;;;;5.25;2.20;;;22.70;89.50;;;;;;5220355;28;20071;-72
2022/07/03 06:55:53;;;;;;;4.65;2.00;;;22.80;88.90;;;;;;5216194;28;20052;-71
2022/07/03 06:58:25;;;;;;;2.85;2.03;;;22.90;89.10;;;;;;5203258;28;20510;-71
2022/07/03 07:00:58;;;;;;;4.70;2.15;;;23.00;89.10;;;;;;5192648;28;20633;-71
2022/07/03 07:03:30;;;;;;;1.80;1.70;;;23.00;86.20;;;;;;5203984;28;20542;-72
2022/07/03 07:06:03;;;;;;;2.20;2.00;;;23.10;85.90;;;;;;5226077;28;20060;-71
2022/07/03 07:08:35;;;;;;;3.30;1.95;;;23.20;85.00;;;;;;5227003;28;20294;-71
2022/07/03 07:11:08;;;;;;;1.88;1.67;;;23.40;84.40;;;;;;5226262;28;20605;-71
2022/07/03 07:13:41;;;;;;;2.05;1.90;;;23.40;84.60;;;;;;5171566;28;20051;-71
2022/07/03 07:16:13;;;;;;;2.30;2.10;;;23.50;84.20;;;;;;5225008;28;20056;-72
2022/07/03 07:18:46;;;;;;;2.22;1.80;;;23.70;84.00;;;;;;5233283;28;20044;-72
2022/07/03 07:21:19;;;;;;;2.55;2.08;;;23.70;82.00;;;;;;5229488;28;20453;-72
2022/07/03 07:23:52;;;;;;;2.08;1.88;;;23.80;80.30;;;;;;5228765;28;20063;-72
2022/07/03 07:26:25;;;;;;;2.10;1.90;;;23.80;81.10;;;;;;5205166;28;20064;-71
2022/07/03 07:28:58;;;;;;;4.53;2.13;;;23.90;79.90;;;;;;5201643;28;20064;-71
2022/07/03 07:31:31;;;;;;;4.03;2.22;;;23.90;80.00;;;;;;5219261;28;20820;-71
2022/07/03 07:34:04;;;;;;;6.75;1.80;;;24.00;79.40;;;;;;5212357;28;20040;-72
2022/07/03 07:36:37;;;;;;;3.92;2.00;;;24.10;78.80;;;;;;5206907;28;20787;-72
2022/07/03 07:39:09;;;;;;;2.33;2.13;;;24.30;79.40;;;;;;5219192;28;20048;-72
2022/07/03 07:41:42;;;;;;;3.33;1.88;;;24.50;78.50;;;;;;5218384;28;20312;-72
2022/07/03 07:44:15;;;;;;;2.70;1.80;;;24.60;76.90;;;;;;5217556;28;21123;-72
2022/07/03 07:46:51;;;;;;;2.00;1.90;;;24.60;76.70;;;;;;5220550;28;20043;-71
2022/07/03 07:49:24;;;;;;;2.67;1.88;;;24.70;76.60;;;;;;5230592;28;20043;-72
2022/07/03 07:51:57;;;;;;;3.15;1.67;;;24.80;75.40;;;;;;5232576;28;20055;-72
2022/07/03 07:54:30;;;;;;;2.27;2.07;;;24.90;74.50;;;;;;5220770;28;20059;-72
2022/07/03 07:57:02;;;;;;;2.20;2.00;;;25.00;74.10;;;;;;5224049;28;20048;-71
2022/07/03 07:59:35;;;;;;;3.83;1.98;;;25.00;72.70;;;;;;5235823;28;20091;-73
2022/07/03 08:08:01;;;;;;;3.92;1.90;;;25.10;72.30;;;;;;5233084;28;20142;-72
2022/07/03 08:10:35;;;;;;;2.28;2.08;;;25.30;72.70;;;;;;5230730;28;20049;-72
2022/07/03 08:13:10;;;;;;;2.33;2.13;;;25.50;71.60;;;;;;5238804;28;20051;-73
2022/07/03 08:15:43;;;;;;;3.33;2.03;;;25.40;69.70;;;;;;5234316;28;20063;-71
2022/07/03 08:18:16;;;;;;;3.33;2.15;;;25.50;69.90;;;;;;5217337;28;20047;-71
2022/07/03 08:20:48;;;;;;;5.53;2.00;;;25.60;72.10;;;;;;5223685;28;20048;-72
2022/07/03 08:23:21;;;;;;;2.03;1.93;;;25.80;69.50;;;;;;5219812;28;20298;-72
2022/07/03 08:25:54;;;;;;;1.80;1.70;;;25.70;68.70;;;;;;5230416;28;20049;-72
2022/07/03 08:28:27;;;;;;;2.83;1.80;;;25.80;66.70;;;;;;5224043;28;20368;-72
2022/07/03 08:30:59;;;;;;;;;;;25.70;67.40;;;;;;5189348;28;20051;-72
2022/07/03 08:33:32;;;;;;;3.72;2.22;;;25.80;69.10;;;;;;5217735;28;20625;-72
2022/07/03 08:36:10;;;;;;;7.40;2.33;;;26.00;68.80;;;;;;5205594;28;20056;-72
2022/07/03 08:38:42;;;;;;;2.53;2.05;;;26.00;68.10;;;;;;5198478;28;20055;-71
2022/07/03 08:41:17;;;;;;;6.50;2.10;;;26.00;66.70;;;;;;5222909;28;20051;-72
2022/07/03 08:43:51;;;;;;;1.95;1.83;;;26.00;67.10;;;;;;5227166;28;20052;-71
2022/07/03 08:46:26;;;;;;;2.38;1.80;;;26.10;66.50;;;;;;5231833;28;20044;-71
2022/07/03 08:49:01;;;;;;;5.13;1.75;;;26.30;66.10;;;;;;5230080;28;20063;-72
2022/07/03 08:51:35;;;;;;;4.82;1.88;;;26.00;64.70;;;;;;5218790;28;20712;-71
2022/07/03 08:54:08;;;;;;;2.00;1.80;;;26.10;65.90;;;;;;5225087;28;20051;-72
2022/07/03 08:56:42;;;;;;;2.47;1.97;;;26.30;66.70;;;;;;5226270;28;20966;-70
2022/07/03 08:59:16;;;;;;;2.08;1.40;;;26.20;62.20;;;;;;5230018;28;20794;-72
2022/07/03 09:01:49;;;;;;;1.65;1.55;;;26.30;62.00;;;;;;5226376;28;20044;-71
2022/07/03 09:04:22;;;;;;;1.45;1.33;;;26.40;60.90;;;;;;5210263;28;20532;-71
2022/07/03 09:06:55;;;;;;;3.70;1.57;;;26.40;60.50;;;;;;5206308;28;20055;-71
2022/07/03 09:09:28;;;;;;;3.28;1.38;;;26.30;60.40;;;;;;5225376;28;20968;-72
2022/07/03 09:12:01;;;;;;;1.75;1.50;;;26.50;60.50;;;;;;5221716;28;20052;-71
2022/07/03 09:14:34;;;;;;;2.15;1.25;;;26.40;58.70;;;;;;5225608;28;20550;-71
2022/07/03 09:17:08;;;;;;;1.27;1.17;;;26.40;56.70;;;;;;5212541;28;20052;-71
2022/07/03 09:19:41;;;;;;;1.80;1.40;;;26.40;58.70;;;;;;5233444;28;20128;-71
2022/07/03 09:22:22;;;;;;;1.60;1.40;;;26.40;59.90;;;;;;5212229;28;20056;-72
2022/07/03 09:25:04;;;;;;;3.08;1.65;;;26.40;59.50;;;;;;5228529;28;20044;-72
2022/07/03 09:27:51;;;;;;;3.60;1.35;;;26.50;59.70;;;;;;5229573;28;20534;-71
2022/07/03 09:30:24;;;;;;;1.60;1.50;;;26.70;60.00;;;;;;5217435;28;20060;-72
2022/07/03 09:32:57;;;;;;;6.00;1.50;;;26.80;58.10;;;;;;5212607;28;20040;-72
2022/07/03 09:35:30;;;;;;;4.28;1.52;;;26.90;56.90;;;;;;5226523;28;20666;-71
2022/07/03 09:38:04;;;;;;;1.50;1.40;;;26.80;57.90;;;;;;5224571;28;20443;-71
2022/07/03 09:40:51;;;;;;;1.50;1.40;;;26.70;56.90;;;;;;5231306;28;20037;-71
2022/07/03 09:43:28;;;;;;;1.40;1.30;;;26.80;58.00;;;;;;5232231;28;20049;-71
2022/07/03 09:46:03;;;;;;;2.00;1.48;;;26.90;59.20;;;;;;5220345;28;20059;-71
2022/07/03 09:48:41;;;;;;;6.70;1.65;;;26.80;58.00;;;;;;5227102;28;20059;-71
2022/07/03 09:51:18;;;;;;;1.95;1.40;;;27.00;59.20;;;;;;5225278;28;20420;-72
2022/07/03 09:54:01;;;;;;;1.75;1.20;;;27.10;58.90;;;;;;5227106;28;20044;-72
2022/07/03 09:56:37;;;;;;;1.60;1.50;;;27.20;57.60;;;;;;5224830;28;20081;-72
2022/07/03 09:59:15;;;;;;;1.50;1.40;;;27.40;58.20;;;;;;5212281;28;20044;-71
2022/07/03 10:01:47;;;;;;;1.40;1.30;;;27.40;56.20;;;;;;5195787;28;20040;-71
2022/07/03 10:04:23;;;;;;;1.40;1.30;;;27.40;55.50;;;;;;5221543;28;20044;-73
2022/07/03 10:06:59;;;;;;;1.77;1.40;;;27.40;56.00;;;;;;5226250;22;20053;-72
2022/07/03 10:09:34;;;;;;;2.28;1.60;;;27.50;57.20;;;;;;5201770;28;21532;-72
2022/07/03 10:12:06;;;;;;;1.52;1.42;;;27.50;56.10;;;;;;5195598;28;20052;-70
2022/07/03 10:14:40;;;;;;;1.60;1.42;;;27.60;56.60;;;;;;5192591;28;20056;-70
2022/07/03 10:17:13;;;;;;;2.13;1.48;;;27.70;56.00;;;;;;5207509;28;20671;-70
2022/07/03 10:19:52;;;;;;;2.05;1.38;;;27.80;57.70;;;;;;5179951;28;20560;-71
2022/07/03 10:22:27;;;;;;;2.30;1.30;;;28.00;55.30;;;;;;5198475;28;20555;-71
2022/07/03 10:25:01;;;;;;;1.10;1.00;;;28.30;53.60;;;;;;5204170;28;20059;-71
2022/07/03 10:27:35;;;;;;;2.80;1.00;;;28.60;51.70;;;;;;5181894;28;20499;-70
2022/07/03 10:30:08;;;;;;;1.38;1.10;;;28.80;51.10;;;;;;5168479;28;20056;-70
2022/07/03 10:32:43;;;;;;;1.02;1.00;;;28.80;50.80;;;;;;5183067;28;20056;-71
2022/07/03 10:35:26;;;;;;;1.42;1.30;;;29.20;50.10;;;;;;5205974;28;20048;-71
2022/07/03 10:38:12;;;;;;;2.80;1.20;;;29.50;49.70;;;;;;5190308;28;20514;-72
2022/07/03 10:46:42;;;;;;;1.30;1.10;;;30.40;48.70;;;;;;5204941;28;20550;-70
2022/07/03 10:49:15;;;;;;;3.75;1.23;;;30.30;47.00;;;;;;5193781;28;20048;-70
2022/07/03 10:51:55;;;;;;;;;;;30.50;47.70;;;;;;5189647;28;20528;-70
2022/07/03 10:54:29;;;;;;;2.30;1.27;;;31.00;47.90;;;;;;5180736;28;21110;-71
2022/07/03 10:57:01;;;;;;;3.05;1.10;;;31.00;46.80;;;;;;5201985;28;20044;-72
2022/07/03 10:59:37;;;;;;;1.20;1.10;;;30.80;44.60;;;;;;5198456;28;20049;-72
2022/07/03 11:02:40;;;;;;;1.70;1.17;;;31.10;45.80;;;;;;5196130;28;20648;-72
2022/07/03 11:05:13;;;;;;;;;;;31.40;44.80;;;;;;5200635;28;20044;-71
2022/07/03 11:07:53;;;;;;;5.60;2.70;;;31.70;44.90;;;;;;5196520;28;19928;-70
2022/07/03 11:10:25;;;;;;;5.68;3.58;;;31.30;43.50;;;;;;5165072;28;20520;-73
2022/07/03 11:13:03;;;;;;;80.13;64.03;;;31.50;45.90;;;;;;5196737;28;20686;-72
2022/07/03 11:15:51;;;;;;;3.33;2.85;;;31.80;45.40;;;;;;5196095;28;20470;-73
2022/07/03 11:18:29;;;;;;;58.45;46.83;;;32.00;43.80;;;;;;5182587;28;20380;-71
2022/07/03 11:21:01;;;;;;;20.05;15.90;;;32.10;42.00;;;;;;5190634;28;20392;-72
2022/07/03 11:24:00;;;;;;;6.20;3.17;;;32.00;42.70;;;;;;5174692;28;20045;-72
2022/07/03 11:26:32;;;;;;;10.73;8.38;;;32.10;43.00;;;;;;5153505;28;20053;-71
2022/07/03 11:29:05;;;;;;;4.70;4.15;;;32.10;43.90;;;;;;5189311;28;20052;-72
2022/07/03 11:31:38;;;;;;;4.55;2.63;;;32.40;42.80;;;;;;5173057;28;20075;-72
2022/07/03 11:34:19;;;;;;;1.00;0.95;;;32.70;43.40;;;;;;5197778;28;20052;-70
2022/07/03 11:36:51;;;;;;;1.25;1.15;;;33.10;41.30;;;;;;5157868;28;20056;-70
2022/07/03 11:39:25;;;;;;;4.60;1.30;;;33.50;39.80;;;;;;5209862;28;20515;-72
2022/07/03 11:41:58;;;;;;;1.42;0.90;;;33.50;40.00;;;;;;5199136;28;20041;-72
2022/07/03 11:44:30;;;;;;;0.93;0.90;;;33.60;41.90;;;;;;5201633;28;20323;-72
2022/07/03 11:47:04;;;;;;;0.93;0.90;;;33.60;38.90;;;;;;5164621;28;20053;-70
2022/07/03 11:49:48;;;;;;;1.90;1.20;;;33.70;40.20;;;;;;5183464;28;20040;-70
2022/07/03 11:52:33;;;;;;;1.00;0.80;;;33.50;39.50;;;;;;5188043;28;20049;-70
2022/07/03 11:55:06;;;;;;;1.25;1.00;;;34.00;41.20;;;;;;5197144;28;20302;-72
2022/07/03 11:57:49;;;;;;;2.78;1.10;;;34.10;40.60;;;;;;5200889;28;20049;-72
2022/07/03 12:00:21;;;;;;;1.20;1.10;;;34.40;41.60;;;;;;5175477;28;20056;-72
2022/07/03 12:02:54;;;;;;;6.95;1.55;;;34.70;40.90;;;;;;5174814;28;22820;-71
2022/07/03 12:05:26;;;;;;;1.98;1.40;;;34.80;40.00;;;;;;5176215;28;20048;-71
2022/07/03 12:08:05;;;;;;;1.00;1.00;;;34.80;42.70;;;;;;5201109;28;20229;-71
2022/07/03 12:10:39;;;;;;;1.52;1.20;;;34.60;39.50;;;;;;5200755;28;20060;-70
2022/07/03 12:13:22;;;;;;;1.52;1.20;;;34.20;39.70;;;;;;5192910;28;20570;-69
2022/07/03 12:16:00;;;;;;;;;;;34.30;40.50;;;;;;5192428;28;20057;-69
2022/07/03 12:18:53;;;;;;;1.40;1.20;;;34.10;38.60;;;;;;5193697;28;20555;-71
2022/07/03 12:21:31;;;;;;;;;;;34.00;38.80;;;;;;5196202;28;20043;-70
2022/07/03 12:24:11;;;;;;;2.00;1.00;;;33.70;37.50;;;;;;5195251;28;19929;-70
2022/07/03 12:26:44;;;;;;;0.90;0.90;;;34.10;39.40;;;;;;5165401;28;20049;-71
2022/07/03 12:29:17;;;;;;;1.20;1.10;;;34.40;37.30;;;;;;5183733;28;20048;-72
2022/07/03 12:31:50;;;;;;;;;;;34.30;39.00;;;;;;5183464;28;20511;-71
2022/07/03 12:34:22;;;;;;;1.13;1.00;;;34.70;38.70;;;;;;5199887;28;19924;-71
2022/07/03 12:36:58;;;;;;;2.97;1.40;;;34.80;39.90;;;;;;5179547;28;20045;-70
2022/07/03 12:39:44;;;;;;;9.23;1.15;;;34.60;37.70;;;;;;5188705;28;20052;-69
2022/07/03 12:42:19;;;;;;;2.65;1.20;;;35.00;39.40;;;;;;5164071;28;20056;-70
2022/07/03 12:45:02;;;;;;;1.23;1.10;;;34.90;38.70;;;;;;5185072;28;20041;-71
2022/07/03 12:47:35;;;;;;;1.08;0.90;;;35.00;39.70;;;;;;5200289;28;20049;-72
2022/07/03 12:50:09;;;;;;;1.80;1.30;;;34.90;37.20;;;;;;5174684;28;20715;-72
2022/07/03 12:52:55;;;;;;;4.07;1.25;;;34.30;36.80;;;;;;5167776;28;20056;-71
2022/07/03 12:55:29;;;;;;;1.42;1.17;;;34.40;38.00;;;;;;5192602;28;20048;-71
2022/07/03 13:01:06;;;;;;;2.58;1.13;;;35.40;37.90;;;;;;5190941;28;20320;-72
2022/07/03 13:03:38;;;;;;;;;;;35.10;37.80;;;;;;5191239;28;20708;-72
2022/07/03 13:06:16;;;;;;;1.33;1.23;;;35.20;38.00;;;;;;5195552;28;20053;-71
2022/07/03 13:08:51;;;;;;;1.95;1.30;;;35.20;36.70;;;;;;5190064;28;20060;-71
2022/07/03 13:11:35;;;;;;;3.50;1.30;;;35.20;37.70;;;;;;5179425;28;20509;-70
2022/07/03 13:14:16;;;;;;;1.83;1.20;;;35.30;38.70;;;;;;5207481;28;20408;-71
2022/07/03 13:16:52;;;;;;;1.58;1.33;;;35.60;37.20;;;;;;5187991;28;20492;-71
2022/07/03 13:19:36;;;;;;;4.00;1.35;;;35.80;36.50;;;;;;5179233;28;20053;-75
2022/07/03 13:22:08;;;;;;;2.17;1.42;;;35.40;36.20;;;;;;5185240;28;20056;-75
2022/07/03 13:24:41;;;;;;;2.40;1.40;;;35.20;37.20;;;;;;5181602;28;20060;-73
2022/07/03 13:27:15;;;;;;;5.55;1.20;;;35.60;36.90;;;;;;5170554;28;20053;-76
2022/07/03 13:29:47;;;;;;;4.43;1.50;;;35.40;37.80;;;;;;5179809;28;20037;-76
2022/07/03 13:32:20;;;;;;;2.00;1.40;;;35.50;38.60;;;;;;5182124;28;20510;-76
2022/07/03 13:34:52;;;;;;;2.47;1.80;;;35.60;36.60;;;;;;5185201;28;20045;-75
2022/07/03 13:37:25;;;;;;;2.83;1.90;;;35.80;36.40;;;;;;5199540;28;20045;-76
2022/07/03 13:39:58;;;;;;;3.60;1.90;;;35.70;37.10;;;;;;5194522;28;20041;-76
2022/07/03 13:42:31;;;;;;;2.65;1.60;;;35.90;36.30;;;;;;5197458;28;20047;-76
2022/07/03 13:45:04;;;;;;;2.78;1.20;;;35.90;36.70;;;;;;5197060;28;20063;-75
2022/07/03 13:47:37;;;;;;;1.88;1.77;;;35.50;36.10;;;;;;5187675;28;20064;-76
2022/07/03 13:50:09;;;;;;;1.20;1.08;;;35.60;36.50;;;;;;5167334;28;20056;-76
2022/07/03 13:52:42;;;;;;;;;;;35.30;36.80;;;;;;5186662;28;20148;-74
2022/07/03 13:55:19;;;;;;;1.40;1.27;;;35.40;38.10;;;;;;5164912;28;19943;-75
2022/07/03 13:57:52;;;;;;;2.35;1.85;;;35.80;37.50;;;;;;5180917;28;20072;-75
2022/07/03 14:00:25;;;;;;;;;;;35.30;36.70;;;;;;5189934;28;20060;-76
2022/07/03 14:02:58;;;;;;;2.05;1.42;;;35.40;37.70;;;;;;5183997;28;20865;-75
2022/07/03 14:05:30;;;;;;;2.05;1.40;;;35.30;35.70;;;;;;5203405;28;20045;-76
2022/07/03 14:08:03;;;;;;;2.63;1.85;;;35.60;38.40;;;;;;5205687;28;20340;-74